Time;durP1;ratioP1;P1;durP2;ratioP2;P2;SDS_P1;SDS_P2;PMS_P1;PMS_P2;Temp;Humidity;BMP_temperature;BMP_pressure;BME280_temperature;BME280_humidity;BME280_pressure;Samples;Min_cycle;Max_cycle;Signal;HPM_P1;HPM_P2
2022/01/01 00:00:43;;;;;;;334.35;174.18;;;10.90;99.90;;;;;;5058252;28;20071;-71
2022/01/01 00:03:09;;;;;;;290.05;147.90;;;10.90;99.90;;;;;;5060599;28;20043;-71
2022/01/01 00:05:34;;;;;;;281.20;138.80;;;10.90;99.90;;;;;;5068866;28;20024;-73
2022/01/01 00:08:02;;;;;;;284.60;137.93;;;10.90;99.90;;;;;;5078285;28;20040;-73
2022/01/01 00:10:28;;;;;;;281.63;136.40;;;10.90;99.90;;;;;;5077101;28;20013;-74
2022/01/01 00:12:54;;;;;;;241.68;121.53;;;10.90;99.90;;;;;;5069812;28;20128;-73
2022/01/01 00:15:20;;;;;;;327.85;180.10;;;11.00;99.90;;;;;;5077579;28;20031;-74
2022/01/01 00:17:46;;;;;;;215.07;100.75;;;11.00;99.90;;;;;;5058247;28;20377;-74
2022/01/01 00:20:12;;;;;;;229.50;102.28;;;11.00;99.90;;;;;;5054860;28;20025;-73
2022/01/01 00:22:39;;;;;;;242.65;115.63;;;11.00;99.90;;;;;;5054389;28;20321;-74
2022/01/01 00:25:06;;;;;;;208.93;95.80;;;11.00;99.90;;;;;;5047450;28;20203;-73
2022/01/01 00:27:32;;;;;;;211.85;100.60;;;11.10;99.90;;;;;;5064648;28;20073;-74
2022/01/01 00:29:58;;;;;;;219.18;92.47;;;11.10;99.90;;;;;;5084144;28;20024;-74
2022/01/01 00:32:23;;;;;;;228.02;101.70;;;11.10;99.90;;;;;;5087726;28;20013;-74
2022/01/01 00:34:50;;;;;;;299.67;122.28;;;11.10;99.90;;;;;;5072811;28;20032;-74
2022/01/01 00:37:16;;;;;;;208.57;85.47;;;11.20;99.90;;;;;;5058669;28;20009;-75
2022/01/01 00:39:42;;;;;;;233.32;97.47;;;11.20;99.90;;;;;;5063251;28;20036;-74
2022/01/01 00:42:08;;;;;;;376.13;189.18;;;11.20;99.90;;;;;;5056636;28;20099;-74
2022/01/01 00:44:33;;;;;;;380.42;184.27;;;11.20;99.90;;;;;;5059517;28;20371;-74
2022/01/01 00:46:59;;;;;;;194.75;83.75;;;11.20;99.90;;;;;;5040735;28;20380;-73
2022/01/01 00:49:25;;;;;;;151.50;59.92;;;11.20;99.90;;;;;;5058330;28;20079;-74
2022/01/01 00:51:51;;;;;;;132.52;48.20;;;11.20;99.90;;;;;;5043164;28;20027;-74
2022/01/01 00:54:16;;;;;;;159.18;55.92;;;11.20;99.90;;;;;;5060094;28;20414;-73
2022/01/01 00:56:42;;;;;;;177.63;75.50;;;11.20;99.90;;;;;;5062317;28;20032;-73
2022/01/01 00:59:07;;;;;;;184.57;72.00;;;11.10;99.90;;;;;;5055447;28;20108;-74
2022/01/01 01:01:33;;;;;;;281.40;120.38;;;11.10;99.90;;;;;;5056520;28;20104;-74
2022/01/01 01:03:59;;;;;;;209.55;86.28;;;11.10;99.90;;;;;;5058579;28;20479;-74
2022/01/01 01:06:24;;;;;;;174.27;61.35;;;11.10;99.90;;;;;;5066204;28;20388;-73
2022/01/01 01:08:53;;;;;;;154.65;49.25;;;11.10;99.90;;;;;;5056915;28;20070;-73
2022/01/01 01:11:19;;;;;;;150.73;52.90;;;11.20;99.90;;;;;;5053823;28;20017;-73
2022/01/01 01:13:55;;;;;;;148.18;56.28;;;11.20;99.90;;;;;;5058590;28;20396;-75
2022/01/01 01:16:21;;;;;;;132.82;47.00;;;11.30;99.90;;;;;;5059447;28;20496;-73
2022/01/01 01:18:46;;;;;;;120.30;39.55;;;11.30;99.90;;;;;;5058282;28;20017;-74
2022/01/01 01:21:12;;;;;;;127.68;43.13;;;11.30;99.90;;;;;;5060258;28;20389;-73
2022/01/01 01:23:37;;;;;;;224.70;91.57;;;11.40;99.90;;;;;;5062200;28;20422;-74
2022/01/01 01:26:03;;;;;;;189.48;79.30;;;11.40;99.90;;;;;;5058282;28;20028;-75
2022/01/01 01:28:29;;;;;;;105.28;39.05;;;11.50;99.90;;;;;;5064132;28;20024;-75
2022/01/01 01:30:54;;;;;;;115.57;44.35;;;11.50;99.90;;;;;;5039470;28;20013;-74
2022/01/01 01:33:20;;;;;;;100.57;35.03;;;11.50;99.90;;;;;;5045678;28;20026;-73
2022/01/01 01:35:45;;;;;;;94.53;31.27;;;11.60;99.90;;;;;;5053167;28;20048;-73
2022/01/01 01:38:11;;;;;;;88.28;28.23;;;11.60;99.90;;;;;;5035077;28;20021;-73
2022/01/01 01:40:36;;;;;;;86.13;25.52;;;11.60;99.90;;;;;;5058935;28;20559;-73
2022/01/01 01:43:08;;;;;;;78.40;25.42;;;11.70;99.90;;;;;;5053080;28;20061;-74
2022/01/01 01:45:34;;;;;;;83.40;24.10;;;11.70;99.90;;;;;;5053008;28;20033;-74
2022/01/01 01:48:00;;;;;;;80.40;21.58;;;11.70;99.90;;;;;;5053394;28;20082;-74
2022/01/01 01:50:25;;;;;;;70.07;19.75;;;11.80;99.90;;;;;;5053409;28;20025;-74
2022/01/01 01:52:57;;;;;;;72.13;22.23;;;11.80;99.90;;;;;;5052980;28;20021;-74
2022/01/01 01:55:22;;;;;;;84.20;29.48;;;11.90;99.90;;;;;;5053001;28;20033;-74
2022/01/01 01:57:48;;;;;;;209.93;130.57;;;11.90;99.90;;;;;;5052816;28;20017;-74
2022/01/01 02:01:19;;;;;;;87.35;26.35;;;11.90;99.90;;;;;;5053044;28;20064;-74
2022/01/01 02:03:03;;;;;;;153.25;85.13;;;11.90;99.90;;;;;;5041857;28;20035;-75
2022/01/01 02:05:33;;;;;;;84.68;28.38;;;11.90;99.90;;;;;;5052372;28;20029;-74
2022/01/01 02:07:59;;;;;;;81.40;24.42;;;11.90;99.90;;;;;;5052591;28;20116;-74
2022/01/01 02:10:25;;;;;;;103.78;46.05;;;11.90;99.90;;;;;;5052869;28;20033;-74
2022/01/01 02:12:54;;;;;;;71.97;25.17;;;11.90;99.90;;;;;;5052939;28;20159;-73
2022/01/01 02:18:11;;;;;;;79.75;28.60;;;12.00;99.90;;;;;;5052675;28;20025;-75
2022/01/01 02:20:37;;;;;;;68.68;25.17;;;12.00;99.90;;;;;;5052157;28;20017;-74
2022/01/01 02:23:03;;;;;;;64.22;23.05;;;12.00;99.90;;;;;;5052276;28;20040;-74
2022/01/01 02:25:29;;;;;;;68.70;19.08;;;12.00;99.90;;;;;;5052784;28;20028;-74
2022/01/01 02:27:55;;;;;;;61.03;19.98;;;12.00;99.90;;;;;;5052571;28;20056;-74
2022/01/01 02:30:21;;;;;;;80.40;26.58;;;12.00;99.90;;;;;;5034394;28;20044;-74
2022/01/01 02:32:47;;;;;;;68.93;25.08;;;12.00;99.90;;;;;;5051983;28;20029;-74
2022/01/01 02:35:15;;;;;;;73.25;22.75;;;12.00;99.90;;;;;;5052554;28;20032;-74
2022/01/01 02:37:42;;;;;;;69.88;24.33;;;12.00;99.90;;;;;;5052681;28;20392;-73
2022/01/01 02:40:09;;;;;;;69.65;26.60;;;12.00;99.90;;;;;;5052949;28;20254;-73
2022/01/01 02:42:37;;;;;;;74.40;27.33;;;12.10;99.90;;;;;;5052083;28;20396;-74
2022/01/01 02:45:07;;;;;;;76.43;31.40;;;12.10;99.90;;;;;;5051813;28;20086;-74
2022/01/01 02:47:33;;;;;;;78.85;31.00;;;12.10;99.90;;;;;;5035384;28;20027;-74
2022/01/01 02:49:59;;;;;;;78.63;28.20;;;12.20;99.90;;;;;;5051816;28;20477;-74
2022/01/01 02:52:24;;;;;;;73.18;29.35;;;12.20;99.90;;;;;;5051986;28;20075;-74
2022/01/01 02:54:50;;;;;;;115.80;46.35;;;12.20;99.90;;;;;;5051482;28;20100;-74
2022/01/01 02:57:16;;;;;;;107.20;46.25;;;12.20;99.90;;;;;;5052036;28;20544;-74
2022/01/01 02:59:42;;;;;;;95.32;40.72;;;12.20;99.90;;;;;;5052005;28;20070;-74
2022/01/01 03:02:07;;;;;;;86.38;34.45;;;12.30;99.90;;;;;;5052031;28;20021;-74
2022/01/01 03:04:33;;;;;;;82.55;30.35;;;12.30;99.90;;;;;;5051647;28;20428;-74
2022/01/01 03:06:59;;;;;;;82.65;33.05;;;12.30;99.90;;;;;;5051550;28;20100;-73
2022/01/01 03:09:28;;;;;;;105.30;42.83;;;12.30;99.90;;;;;;5051882;28;20424;-73
2022/01/01 03:11:54;;;;;;;175.82;90.43;;;12.30;99.90;;;;;;5051975;28;20496;-72
2022/01/01 03:14:19;;;;;;;122.57;56.03;;;12.30;99.90;;;;;;5051489;28;20160;-73
2022/01/01 03:16:45;;;;;;;79.82;34.25;;;12.30;99.90;;;;;;5050263;28;20017;-73
2022/01/01 03:19:11;;;;;;;62.55;24.60;;;12.30;99.90;;;;;;5051615;28;20182;-73
2022/01/01 03:21:37;;;;;;;57.55;19.67;;;12.40;99.90;;;;;;5051700;28;20048;-73
2022/01/01 03:24:03;;;;;;;56.38;18.25;;;12.40;99.90;;;;;;5051380;28;20045;-73
2022/01/01 03:26:28;;;;;;;53.03;17.25;;;12.40;99.90;;;;;;5051791;28;20423;-74
2022/01/01 03:28:54;;;;;;;52.10;17.50;;;12.30;99.90;;;;;;5051744;28;20029;-73
2022/01/01 03:31:19;;;;;;;52.08;19.13;;;12.30;99.90;;;;;;5052291;28;20531;-74
2022/01/01 03:33:45;;;;;;;53.90;19.92;;;12.30;99.90;;;;;;5055142;28;20108;-74
2022/01/01 03:36:11;;;;;;;45.35;19.45;;;12.30;99.90;;;;;;5053402;28;20025;-74
2022/01/01 03:38:36;;;;;;;48.08;19.92;;;12.30;99.90;;;;;;5054895;28;20092;-73
2022/01/01 03:41:02;;;;;;;56.08;19.60;;;12.30;99.90;;;;;;5054989;28;20100;-74
2022/01/01 03:43:27;;;;;;;47.55;20.23;;;12.30;99.90;;;;;;5055550;28;20017;-74
2022/01/01 03:45:53;;;;;;;49.47;19.90;;;12.30;99.90;;;;;;5055539;28;20035;-74
2022/01/01 03:48:19;;;;;;;58.28;19.45;;;12.30;99.90;;;;;;5054722;28;20036;-74
2022/01/01 03:50:44;;;;;;;50.97;20.65;;;12.20;99.90;;;;;;5054793;28;20120;-73
2022/01/01 03:53:10;;;;;;;59.33;21.52;;;12.20;99.90;;;;;;5055037;28;20017;-74
2022/01/01 03:55:36;;;;;;;48.17;20.95;;;12.20;99.90;;;;;;5054763;28;20493;-74
2022/01/01 03:58:02;;;;;;;49.15;20.17;;;12.10;99.90;;;;;;5055195;28;20104;-74
2022/01/01 04:00:27;;;;;;;47.80;20.08;;;12.10;99.90;;;;;;5055379;28;20024;-74
2022/01/01 04:02:53;;;;;;;47.22;19.65;;;12.10;99.90;;;;;;5054973;28;20025;-74
2022/01/01 04:05:19;;;;;;;51.78;21.52;;;12.10;99.90;;;;;;5055107;28;20036;-74
2022/01/01 04:07:45;;;;;;;53.42;20.05;;;12.10;99.90;;;;;;5054498;28;20031;-73
2022/01/01 04:10:11;;;;;;;51.25;21.13;;;12.10;99.90;;;;;;5054563;28;20023;-73
2022/01/01 04:12:37;;;;;;;47.65;18.83;;;12.10;99.90;;;;;;5054702;28;20021;-73
2022/01/01 04:15:03;;;;;;;50.28;20.45;;;12.10;99.90;;;;;;5054833;28;20036;-74
2022/01/01 04:17:35;;;;;;;46.92;20.27;;;12.10;99.90;;;;;;5054372;28;20021;-73
2022/01/01 04:20:00;;;;;;;48.85;22.15;;;12.10;99.90;;;;;;5054976;28;20025;-73
2022/01/01 04:22:26;;;;;;;53.60;23.35;;;12.20;99.90;;;;;;5054914;28;20029;-73
2022/01/01 04:24:52;;;;;;;52.63;22.13;;;12.10;99.90;;;;;;5054174;28;20393;-73
2022/01/01 04:27:17;;;;;;;43.83;21.25;;;12.20;99.90;;;;;;5054362;28;20388;-73
2022/01/01 04:29:44;;;;;;;40.42;20.45;;;12.20;99.90;;;;;;5053949;28;20017;-73
2022/01/01 04:32:13;;;;;;;54.08;22.73;;;12.20;99.90;;;;;;5052614;28;20032;-73
2022/01/01 04:34:39;;;;;;;50.40;21.17;;;12.20;99.90;;;;;;5054385;28;20036;-73
2022/01/01 04:37:11;;;;;;;44.65;20.05;;;12.20;99.90;;;;;;5054262;28;20025;-73
2022/01/01 04:39:38;;;;;;;48.75;19.50;;;12.20;99.90;;;;;;5054026;28;20024;-73
2022/01/01 04:42:04;;;;;;;37.60;17.83;;;12.20;99.90;;;;;;5054406;28;20025;-73
2022/01/01 04:44:29;;;;;;;44.83;16.58;;;12.20;99.90;;;;;;5054048;28;20039;-73
2022/01/01 04:46:55;;;;;;;39.85;17.33;;;12.20;99.90;;;;;;5053857;28;20024;-73
2022/01/01 04:49:22;;;;;;;39.88;17.38;;;12.20;99.90;;;;;;5054121;28;20024;-73
2022/01/01 04:51:48;;;;;;;38.33;16.90;;;12.20;99.90;;;;;;5053740;28;20060;-74
2022/01/01 04:54:17;;;;;;;37.15;16.70;;;12.20;99.90;;;;;;5053743;28;20041;-74
2022/01/01 04:56:48;;;;;;;38.60;17.17;;;12.20;99.90;;;;;;5053700;28;20055;-74
2022/01/01 04:59:15;;;;;;;41.92;16.35;;;12.20;99.90;;;;;;5053707;28;20103;-74
2022/01/01 05:01:41;;;;;;;38.72;16.65;;;12.20;99.90;;;;;;5053324;28;20021;-74
2022/01/01 05:04:07;;;;;;;32.92;16.15;;;12.20;99.90;;;;;;5053553;28;20200;-74
2022/01/01 05:06:33;;;;;;;39.33;15.70;;;12.20;99.90;;;;;;5053461;28;20029;-74
2022/01/01 05:09:00;;;;;;;36.90;15.40;;;12.20;99.90;;;;;;5053057;28;20133;-74
2022/01/01 05:11:26;;;;;;;34.53;14.40;;;12.20;99.90;;;;;;5052963;28;20021;-73
2022/01/01 05:13:52;;;;;;;38.70;15.27;;;12.20;99.90;;;;;;5053100;28;20484;-73
2022/01/01 05:16:19;;;;;;;32.50;15.05;;;12.20;99.90;;;;;;5052940;28;20064;-74
2022/01/01 05:18:45;;;;;;;32.63;13.45;;;12.20;99.90;;;;;;5053207;28;20132;-74
2022/01/01 05:21:11;;;;;;;35.90;13.50;;;12.20;99.90;;;;;;5053188;28;20068;-74
2022/01/01 05:23:36;;;;;;;33.30;13.60;;;12.20;99.90;;;;;;5051458;28;20079;-73
2022/01/01 05:26:02;;;;;;;33.97;13.60;;;12.20;99.90;;;;;;5052741;28;20017;-74
2022/01/01 05:28:28;;;;;;;27.30;12.85;;;12.20;99.90;;;;;;5052787;28;20550;-74
2022/01/01 05:30:53;;;;;;;33.65;13.13;;;12.20;99.90;;;;;;5052871;28;20100;-74
2022/01/01 05:33:19;;;;;;;30.73;12.20;;;12.20;99.90;;;;;;5052606;28;20024;-74
2022/01/01 05:35:45;;;;;;;31.02;11.48;;;12.20;99.90;;;;;;5052606;28;20032;-74
2022/01/01 05:38:10;;;;;;;33.10;11.48;;;12.20;99.90;;;;;;5051177;28;20025;-74
2022/01/01 05:40:36;;;;;;;35.35;12.68;;;12.20;99.90;;;;;;5052184;28;20044;-73
2022/01/01 05:43:01;;;;;;;23.95;10.50;;;12.20;99.90;;;;;;5053067;28;20468;-74
2022/01/01 05:45:27;;;;;;;29.55;11.05;;;12.20;99.90;;;;;;5052627;28;20029;-74
2022/01/01 05:47:53;;;;;;;26.13;10.23;;;12.30;99.90;;;;;;5052438;28;20098;-74
2022/01/01 05:50:20;;;;;;;26.00;10.38;;;12.20;99.90;;;;;;5052814;28;20025;-73
2022/01/01 05:52:46;;;;;;;30.38;9.73;;;12.20;99.90;;;;;;5052714;28;20021;-74
2022/01/01 05:55:12;;;;;;;26.90;11.25;;;12.20;99.90;;;;;;5051928;28;20059;-74
2022/01/01 05:57:37;;;;;;;29.15;10.05;;;12.20;99.90;;;;;;5052309;28;20052;-73
2022/01/01 06:00:06;;;;;;;24.40;9.90;;;12.20;99.90;;;;;;5052381;28;20127;-74
2022/01/01 06:02:38;;;;;;;24.90;9.65;;;12.20;99.90;;;;;;5052728;28;20064;-74
2022/01/01 06:05:04;;;;;;;20.95;9.38;;;12.20;99.90;;;;;;5052560;28;20032;-74
2022/01/01 06:07:30;;;;;;;28.38;9.60;;;12.20;99.90;;;;;;5052205;28;20036;-74
2022/01/01 06:09:55;;;;;;;29.92;9.35;;;12.20;99.90;;;;;;5050599;28;20025;-74
2022/01/01 06:12:21;;;;;;;21.95;9.18;;;12.20;99.90;;;;;;5051871;28;20017;-74
2022/01/01 06:14:46;;;;;;;26.63;8.60;;;12.20;99.90;;;;;;5052136;28;20036;-73
2022/01/01 06:17:13;;;;;;;31.17;9.82;;;12.20;99.90;;;;;;5052221;28;20028;-73
2022/01/01 06:19:38;;;;;;;28.45;9.10;;;12.30;99.90;;;;;;5051987;28;20025;-74
2022/01/01 06:22:04;;;;;;;24.23;9.85;;;12.30;99.90;;;;;;5052580;28;20503;-73
2022/01/01 06:24:29;;;;;;;22.20;8.82;;;12.30;99.90;;;;;;5051717;28;20436;-73
2022/01/01 06:26:55;;;;;;;21.75;8.57;;;12.30;99.90;;;;;;5051802;28;20384;-73
2022/01/01 06:29:21;;;;;;;23.33;9.15;;;12.30;99.90;;;;;;5052011;28;20025;-73
2022/01/01 06:31:46;;;;;;;28.27;9.15;;;12.30;99.90;;;;;;5052244;28;20029;-73
2022/01/01 06:34:12;;;;;;;32.60;10.00;;;12.30;99.90;;;;;;5052115;28;20416;-73
2022/01/01 06:36:37;;;;;;;22.75;9.40;;;12.30;99.90;;;;;;5052178;28;20018;-73
2022/01/01 06:39:04;;;;;;;24.40;8.52;;;12.30;99.90;;;;;;5051963;28;20021;-73
2022/01/01 06:41:29;;;;;;;25.90;8.90;;;12.30;99.90;;;;;;5051814;28;20043;-73
2022/01/01 06:43:55;;;;;;;23.15;8.57;;;12.30;99.90;;;;;;5051934;28;20045;-73
2022/01/01 06:46:20;;;;;;;20.98;8.60;;;12.30;99.90;;;;;;5051951;28;20450;-74
2022/01/01 06:48:46;;;;;;;20.92;8.02;;;12.30;99.90;;;;;;5051872;28;20385;-74
2022/01/01 06:51:12;;;;;;;16.15;8.10;;;12.30;99.90;;;;;;5051816;28;20028;-74
2022/01/01 06:53:37;;;;;;;17.73;8.55;;;12.20;99.90;;;;;;5051809;28;20025;-74
2022/01/01 06:56:05;;;;;;;23.40;8.77;;;12.30;99.90;;;;;;5052000;28;20386;-75
2022/01/01 06:58:32;;;;;;;19.73;9.43;;;12.20;99.90;;;;;;5051309;28;20048;-74
2022/01/01 07:00:57;;;;;;;23.77;8.82;;;12.30;99.90;;;;;;5051331;28;20025;-74
2022/01/01 07:03:23;;;;;;;24.77;9.18;;;12.30;99.90;;;;;;5051304;28;20025;-73
2022/01/01 07:05:49;;;;;;;27.10;10.63;;;12.30;99.90;;;;;;5051666;28;20060;-74
2022/01/01 07:08:15;;;;;;;26.60;11.43;;;12.30;99.90;;;;;;5054867;28;20032;-73
2022/01/01 07:10:44;;;;;;;27.45;11.48;;;12.20;99.90;;;;;;5055020;28;20033;-74
2022/01/01 07:13:13;;;;;;;26.92;12.07;;;12.20;99.90;;;;;;5055220;28;20022;-73
2022/01/01 07:15:39;;;;;;;23.63;11.23;;;12.20;99.90;;;;;;5054800;28;20135;-74
2022/01/01 07:18:05;;;;;;;30.35;10.65;;;12.20;99.90;;;;;;5053707;28;20025;-73
2022/01/01 07:20:30;;;;;;;25.15;10.93;;;12.20;99.90;;;;;;5054751;28;20536;-73
2022/01/01 07:22:56;;;;;;;29.33;11.45;;;12.10;99.90;;;;;;5054842;28;20035;-74
2022/01/01 07:25:21;;;;;;;28.55;11.73;;;12.10;99.90;;;;;;5055344;28;20040;-74
2022/01/01 07:27:47;;;;;;;29.13;12.05;;;12.10;99.90;;;;;;5054972;28;20052;-76
2022/01/01 07:30:13;;;;;;;27.23;11.80;;;12.10;99.90;;;;;;5054749;28;20020;-73
2022/01/01 07:32:43;;;;;;;31.63;12.57;;;12.10;99.90;;;;;;5054782;28;20100;-74
2022/01/01 07:35:10;;;;;;;34.67;14.10;;;12.00;99.90;;;;;;5054532;28;20086;-75
2022/01/01 07:37:35;;;;;;;28.60;12.55;;;12.00;99.90;;;;;;5055514;28;20032;-74
2022/01/01 07:40:01;;;;;;;31.45;13.10;;;12.00;99.90;;;;;;5072201;28;20032;-74
2022/01/01 07:42:30;;;;;;;26.48;12.15;;;12.00;99.90;;;;;;5075458;28;20385;-74
2022/01/01 07:44:55;;;;;;;28.88;12.70;;;12.00;99.90;;;;;;5075251;28;20086;-74
2022/01/01 07:47:21;;;;;;;27.83;12.65;;;12.00;99.90;;;;;;5075669;28;20020;-73
2022/01/01 07:49:46;;;;;;;27.85;13.20;;;12.00;99.90;;;;;;5075345;28;20353;-74
2022/01/01 07:52:12;;;;;;;28.38;13.27;;;12.00;99.90;;;;;;5075267;28;20017;-74
2022/01/01 07:54:37;;;;;;;31.20;13.52;;;12.00;99.90;;;;;;5075138;28;20067;-74
2022/01/01 07:57:03;;;;;;;30.13;13.43;;;12.00;99.90;;;;;;5075530;28;20028;-73
2022/01/01 07:59:29;;;;;;;30.88;13.85;;;12.00;99.90;;;;;;5074874;28;20028;-74
2022/01/01 08:01:54;;;;;;;32.20;13.13;;;12.00;99.90;;;;;;5074996;28;20486;-73
2022/01/01 08:04:20;;;;;;;34.40;14.07;;;12.00;99.90;;;;;;5074942;28;20537;-74
2022/01/01 08:06:45;;;;;;;38.28;14.13;;;11.90;99.90;;;;;;5066289;28;20032;-74
2022/01/01 08:09:11;;;;;;;29.17;13.40;;;11.90;99.90;;;;;;5054835;28;20074;-73
2022/01/01 08:11:37;;;;;;;28.48;13.93;;;11.90;99.90;;;;;;5054431;28;20017;-74
2022/01/01 08:14:03;;;;;;;33.08;14.65;;;11.90;99.90;;;;;;5049717;28;20035;-75
2022/01/01 08:16:28;;;;;;;31.30;13.85;;;11.90;99.90;;;;;;5049540;28;20052;-74
2022/01/01 08:18:54;;;;;;;29.58;13.80;;;11.90;99.90;;;;;;5045866;28;20486;-74
2022/01/01 08:21:19;;;;;;;30.35;14.75;;;11.90;99.90;;;;;;5053702;28;20079;-75
2022/01/01 08:23:45;;;;;;;28.65;13.68;;;11.90;99.90;;;;;;5052778;28;20614;-74
2022/01/01 08:26:11;;;;;;;31.52;14.27;;;11.90;99.90;;;;;;5053075;28;20431;-74
2022/01/01 08:28:37;;;;;;;33.33;14.32;;;11.90;99.90;;;;;;5046251;28;20071;-74
2022/01/01 08:31:02;;;;;;;30.08;14.35;;;11.90;99.90;;;;;;5052826;28;20385;-74
2022/01/01 08:33:28;;;;;;;28.98;13.77;;;11.90;99.90;;;;;;5053485;28;20013;-74
2022/01/01 08:35:54;;;;;;;36.10;14.50;;;11.90;99.90;;;;;;5055804;28;20329;-74
2022/01/01 08:38:20;;;;;;;33.55;15.07;;;11.90;99.90;;;;;;5055030;28;20017;-74
2022/01/01 08:40:45;;;;;;;34.85;15.15;;;11.90;99.90;;;;;;5051882;28;20024;-74
2022/01/01 08:43:11;;;;;;;34.38;14.63;;;11.90;99.90;;;;;;5053236;28;20401;-74
2022/01/01 08:45:38;;;;;;;32.45;15.45;;;11.90;99.90;;;;;;5053309;28;20100;-73
2022/01/01 08:48:05;;;;;;;33.63;14.57;;;11.90;99.90;;;;;;5035943;28;20542;-74
2022/01/01 08:50:31;;;;;;;35.33;15.68;;;11.90;99.90;;;;;;5053838;28;20079;-73
2022/01/01 08:52:57;;;;;;;30.95;13.80;;;11.90;99.90;;;;;;5053814;28;20705;-74
2022/01/01 08:55:24;;;;;;;30.33;14.68;;;11.80;99.90;;;;;;5053646;28;20444;-73
2022/01/01 08:57:49;;;;;;;30.42;14.27;;;11.80;99.90;;;;;;5052222;28;20017;-74
2022/01/01 09:00:16;;;;;;;31.13;15.32;;;11.80;99.90;;;;;;5051866;28;20028;-73
2022/01/01 09:02:42;;;;;;;32.20;15.45;;;11.80;99.90;;;;;;5053286;28;20079;-72
2022/01/01 09:05:08;;;;;;;33.95;16.10;;;11.80;99.90;;;;;;5057462;28;20025;-72
2022/01/01 09:07:34;;;;;;;37.67;16.55;;;11.80;99.90;;;;;;5057415;28;20099;-72
2022/01/01 09:10:03;;;;;;;37.53;17.38;;;11.90;99.90;;;;;;5057345;28;20093;-72
2022/01/01 09:12:29;;;;;;;35.80;18.02;;;11.90;99.90;;;;;;5039044;28;20021;-72
2022/01/01 09:14:55;;;;;;;38.72;17.52;;;11.90;99.90;;;;;;5056685;28;20055;-72
2022/01/01 09:17:22;;;;;;;42.20;18.92;;;11.90;99.90;;;;;;5038482;28;20036;-73
2022/01/01 09:19:48;;;;;;;50.50;23.48;;;11.90;99.90;;;;;;5056936;28;20025;-72
2022/01/01 09:22:14;;;;;;;59.88;26.63;;;11.80;99.90;;;;;;5056430;28;20175;-72
2022/01/01 09:24:40;;;;;;;75.75;32.83;;;11.80;99.90;;;;;;5057724;28;20063;-72
2022/01/01 09:27:06;;;;;;;85.63;35.80;;;11.80;99.90;;;;;;5057666;28;20446;-72
2022/01/01 09:29:31;;;;;;;82.93;35.95;;;11.70;99.90;;;;;;5059662;28;20090;-72
2022/01/01 09:31:57;;;;;;;86.40;35.28;;;11.70;99.90;;;;;;5068121;28;20017;-72
2022/01/01 09:34:23;;;;;;;75.50;34.67;;;11.60;99.90;;;;;;5060407;28;20035;-74
2022/01/01 09:36:50;;;;;;;73.60;33.50;;;11.60;99.90;;;;;;5040713;28;20469;-73
2022/01/01 09:39:16;;;;;;;73.95;33.35;;;11.60;99.90;;;;;;5059656;28;20024;-73
2022/01/01 09:41:43;;;;;;;73.05;32.40;;;11.50;99.90;;;;;;5063641;28;20048;-72
2022/01/01 09:44:13;;;;;;;78.97;34.38;;;11.60;99.90;;;;;;5059209;28;20025;-72
2022/01/01 09:46:40;;;;;;;80.47;34.65;;;11.50;99.90;;;;;;5058445;28;20082;-72
2022/01/01 09:49:06;;;;;;;80.18;34.60;;;11.40;99.90;;;;;;5058175;28;20028;-73
2022/01/01 09:51:33;;;;;;;82.05;35.38;;;11.40;99.90;;;;;;5055896;28;20033;-73
2022/01/01 09:53:59;;;;;;;86.60;35.85;;;11.40;99.90;;;;;;5047646;28;20031;-74
2022/01/01 09:56:24;;;;;;;87.15;37.20;;;11.40;99.90;;;;;;5058604;28;20017;-73
2022/01/01 09:58:50;;;;;;;90.68;36.97;;;11.40;99.90;;;;;;5060197;28;20017;-73
2022/01/01 10:01:16;;;;;;;88.60;36.92;;;11.40;99.90;;;;;;5066581;28;20095;-73
2022/01/01 10:03:47;;;;;;;90.68;37.85;;;11.50;99.90;;;;;;5059760;28;20354;-71
2022/01/01 10:06:21;;;;;;;91.28;37.80;;;11.50;99.90;;;;;;5055614;28;20431;-72
2022/01/01 10:09:02;;;;;;;95.85;38.47;;;11.50;99.90;;;;;;5053968;28;20025;-72
2022/01/01 10:11:30;;;;;;;92.60;37.65;;;11.60;99.90;;;;;;5054227;28;20062;-72
2022/01/01 10:13:56;;;;;;;97.35;38.70;;;11.60;99.90;;;;;;5052046;28;20029;-71
2022/01/01 10:16:22;;;;;;;91.97;38.35;;;11.60;99.90;;;;;;5048855;28;20116;-72
2022/01/01 10:18:51;;;;;;;86.63;37.35;;;11.60;99.90;;;;;;5037960;28;20029;-72
2022/01/01 10:21:22;;;;;;;88.63;37.50;;;11.70;99.90;;;;;;5057433;28;20024;-71
2022/01/01 10:23:51;;;;;;;83.07;36.28;;;11.70;99.90;;;;;;5055758;28;20051;-72
2022/01/01 10:29:11;;;;;;;85.38;36.40;;;11.80;99.90;;;;;;5053986;28;20040;-74
2022/01/01 10:31:39;;;;;;;77.50;34.67;;;11.80;99.90;;;;;;5051817;28;20029;-72
2022/01/01 10:34:13;;;;;;;73.38;32.72;;;11.90;99.90;;;;;;5053232;28;20473;-73
2022/01/01 10:36:39;;;;;;;79.68;33.75;;;12.00;99.90;;;;;;5052297;28;20021;-73
2022/01/01 10:39:10;;;;;;;71.60;31.17;;;12.00;99.90;;;;;;5052111;28;20495;-73
2022/01/01 10:41:47;;;;;;;67.18;32.47;;;12.10;99.90;;;;;;5056077;28;20143;-73
2022/01/01 10:44:13;;;;;;;68.65;32.28;;;12.20;99.90;;;;;;5062183;28;20029;-73
2022/01/01 10:46:40;;;;;;;71.53;31.85;;;12.20;99.90;;;;;;5071523;28;20028;-72
2022/01/01 10:49:50;;;;;;;61.55;29.63;;;12.30;99.90;;;;;;5077026;28;20496;-73
2022/01/01 10:52:28;;;;;;;62.50;28.70;;;12.30;99.90;;;;;;5081636;28;20029;-73
2022/01/01 10:55:06;;;;;;;59.53;28.75;;;12.40;99.90;;;;;;5080849;28;20092;-73
2022/01/01 10:57:38;;;;;;;59.30;28.55;;;12.50;99.90;;;;;;5062782;28;20027;-73
2022/01/01 11:00:16;;;;;;;57.55;27.48;;;12.50;99.90;;;;;;5064384;28;20058;-73
2022/01/01 11:02:48;;;;;;;52.80;26.95;;;12.50;99.90;;;;;;5079823;28;20028;-73
2022/01/01 11:05:15;;;;;;;55.40;26.98;;;12.60;99.90;;;;;;5074054;28;20032;-73
2022/01/01 11:07:50;;;;;;;59.13;26.65;;;12.60;99.90;;;;;;5061433;28;20120;-73
2022/01/01 11:10:17;;;;;;;52.13;25.50;;;12.60;99.90;;;;;;5055427;28;20021;-73
2022/01/01 11:12:43;;;;;;;52.78;26.73;;;12.60;99.90;;;;;;5060106;28;20499;-72
2022/01/01 11:15:10;;;;;;;46.13;24.73;;;12.60;99.90;;;;;;5063132;28;20062;-73
2022/01/01 11:17:37;;;;;;;49.50;24.75;;;12.70;99.90;;;;;;5081977;28;20025;-73
2022/01/01 11:20:05;;;;;;;48.13;24.02;;;12.70;99.90;;;;;;5081870;28;20245;-73
2022/01/01 11:22:31;;;;;;;46.08;22.70;;;12.70;99.90;;;;;;5074982;28;20013;-73
2022/01/01 11:24:57;;;;;;;42.88;22.10;;;12.70;99.90;;;;;;5076701;28;20373;-73
2022/01/01 11:27:28;;;;;;;41.78;21.13;;;12.80;99.90;;;;;;5078782;28;20020;-72
2022/01/01 11:29:55;;;;;;;40.53;20.95;;;12.80;99.90;;;;;;5071065;28;20443;-72
2022/01/01 11:32:40;;;;;;;40.05;20.83;;;12.80;99.90;;;;;;5070453;28;20078;-72
2022/01/01 11:35:10;;;;;;;41.63;21.10;;;12.80;99.90;;;;;;5064588;28;20016;-73
2022/01/01 11:37:57;;;;;;;38.55;20.25;;;12.80;99.90;;;;;;5062012;28;20025;-73
2022/01/01 11:40:24;;;;;;;39.92;19.65;;;12.90;99.90;;;;;;5058739;28;20016;-73
2022/01/01 11:42:50;;;;;;;37.38;20.33;;;12.90;99.90;;;;;;5054909;28;20051;-74
2022/01/01 11:45:41;;;;;;;37.90;19.20;;;12.90;99.90;;;;;;5072745;28;20060;-74
2022/01/01 11:48:36;;;;;;;35.45;18.23;;;12.90;99.90;;;;;;5072809;28;20480;-75
2022/01/01 11:51:22;;;;;;;38.83;19.10;;;12.90;99.90;;;;;;5073132;28;20107;-75
2022/01/01 11:54:14;;;;;;;38.67;18.27;;;12.90;99.90;;;;;;5054381;28;20074;-75
2022/01/01 11:56:51;;;;;;;31.45;16.85;;;12.90;99.90;;;;;;5073101;28;20060;-75
2022/01/01 11:59:30;;;;;;;31.15;16.08;;;12.90;99.90;;;;;;5064218;28;20028;-74
2022/01/01 12:02:00;;;;;;;28.67;15.07;;;12.90;99.90;;;;;;5052707;28;20025;-73
2022/01/01 12:04:41;;;;;;;28.48;14.27;;;12.90;99.90;;;;;;5056847;28;20387;-74
2022/01/01 12:07:28;;;;;;;26.77;14.27;;;13.00;99.90;;;;;;5052873;28;20028;-74
2022/01/01 12:10:06;;;;;;;25.65;13.95;;;13.00;99.90;;;;;;5052417;28;20029;-74
2022/01/01 12:13:00;;;;;;;24.85;12.55;;;13.10;99.90;;;;;;5057519;28;20021;-74
2022/01/01 12:15:31;;;;;;;24.45;13.90;;;13.10;99.90;;;;;;5049055;28;20392;-74
2022/01/01 12:18:02;;;;;;;23.98;12.80;;;13.10;99.90;;;;;;5068322;28;20430;-74
2022/01/01 12:20:31;;;;;;;21.73;12.50;;;13.10;99.90;;;;;;5056151;28;20024;-74
2022/01/01 12:22:57;;;;;;;22.40;12.18;;;13.10;99.90;;;;;;5072723;28;20017;-74
2022/01/01 12:25:28;;;;;;;20.25;11.63;;;13.10;99.90;;;;;;5072315;28;20128;-74
2022/01/01 12:27:57;;;;;;;22.23;11.45;;;13.20;99.90;;;;;;5065158;28;20021;-75
2022/01/01 12:30:48;;;;;;;18.98;10.88;;;13.20;99.90;;;;;;5047929;28;20476;-75
2022/01/01 12:33:22;;;;;;;19.17;10.93;;;13.20;99.90;;;;;;5066463;28;20029;-75